createdAt,value
2022-08-23T05:22:00.292Z,12.78
2022-08-23T05:27:13.426Z,12.78
2022-08-23T05:31:53.302Z,12.82
2022-08-23T05:36:55.039Z,12.85
2022-08-23T05:41:52.715Z,12.81
2022-08-23T05:46:53.365Z,12.79
2022-08-23T05:51:54.087Z,12.81
2022-08-23T05:56:54.741Z,12.79
2022-08-23T06:01:55.416Z,12.83
2022-08-23T06:06:58.986Z,12.88
2022-08-23T06:11:59.599Z,12.91
2022-08-23T06:17:00.237Z,12.97
2022-08-23T06:22:01.001Z,13.05
2022-08-23T06:27:01.634Z,13.14
2022-08-23T06:32:02.439Z,13.22
2022-08-23T06:37:03.195Z,13.27
2022-08-23T06:42:07.597Z,13.28
2022-08-23T06:47:04.535Z,13.31
2022-08-23T06:52:05.068Z,13.37
2022-08-23T06:57:05.910Z,13.41
2022-08-23T07:02:06.607Z,13.42
2022-08-23T07:07:12.330Z,13.43
2022-08-23T07:12:07.906Z,13.43
2022-08-23T07:17:08.578Z,13.46
2022-08-23T07:22:09.317Z,13.48
2022-08-23T07:27:09.899Z,13.54
2022-08-23T07:32:13.773Z,13.58
2022-08-23T07:37:15.360Z,13.51
2022-08-23T07:42:23.244Z,13.55
2022-08-23T07:47:15.253Z,13.57
2022-08-23T07:52:16.130Z,13.55
2022-08-23T07:57:16.692Z,13.61
2022-08-23T08:02:17.461Z,13.72
2022-08-23T08:07:19.678Z,13.73
2022-08-23T08:12:18.644Z,13.72
2022-08-23T08:17:21.303Z,13.83
2022-08-23T08:22:24.850Z,13.78
2022-08-23T08:27:25.954Z,13.74
2022-08-23T08:32:21.542Z,13.84
2022-08-23T08:37:22.099Z,13.95
2022-08-23T08:42:23.342Z,14.06
2022-08-23T08:47:23.798Z,14.13
2022-08-23T08:52:26.919Z,14.29
2022-08-23T08:57:28.612Z,14.27
2022-08-23T09:02:32.161Z,14.27
2022-08-23T09:07:31.323Z,14.38
2022-08-23T09:12:29.644Z,14.47
2022-08-23T09:17:30.984Z,14.34
2022-08-23T09:22:32.650Z,14.46
2022-08-23T09:27:32.679Z,14.77
2022-08-23T09:32:32.841Z,14.51
2022-08-23T09:37:33.142Z,14.64
2022-08-23T09:41:46.278Z,14.38
2022-08-23T09:46:39.516Z,14.57
2022-08-23T09:56:41.265Z,14.46
2022-08-23T10:01:41.650Z,14.78
2022-08-23T10:06:42.609Z,14.24
2022-08-23T10:11:43.346Z,14.80
2022-08-23T10:21:49.901Z,14.82
2022-08-23T10:26:52.389Z,14.80
2022-08-23T10:32:12.314Z,14.80
2022-08-23T10:36:52.285Z,14.80
2022-08-23T10:42:02.996Z,14.80
2022-08-23T10:46:53.538Z,14.78
2022-08-23T10:51:54.098Z,14.80
2022-08-23T10:56:57.533Z,14.80
2022-08-23T11:01:58.432Z,14.79
2022-08-23T11:06:58.886Z,14.77
2022-08-23T11:11:59.704Z,14.78
2022-08-23T11:17:00.242Z,14.80
2022-08-23T11:22:00.935Z,14.78
2022-08-23T11:27:05.449Z,14.79
2022-08-23T11:32:02.060Z,14.79
2022-08-23T11:41:49.742Z,14.80
2022-08-23T11:46:39.547Z,14.79
2022-08-23T11:51:40.276Z,14.80
2022-08-23T11:56:44.456Z,14.78
2022-08-23T12:01:42.021Z,14.79
2022-08-23T12:06:42.131Z,14.78
2022-08-23T12:11:42.859Z,14.81
2022-08-23T12:16:44.371Z,14.80
2022-08-23T12:21:44.153Z,14.79
2022-08-23T12:26:49.868Z,14.80
2022-08-23T12:31:48.711Z,14.82
2022-08-23T12:36:50.103Z,14.81
2022-08-23T12:51:51.013Z,14.79
2022-08-23T12:56:41.865Z,14.78
2022-08-23T13:01:48.449Z,14.78
2022-08-23T13:06:40.320Z,14.78
2022-08-23T13:16:39.737Z,14.80
2022-08-23T13:21:39.386Z,14.79
2022-08-23T13:26:39.066Z,14.79
2022-08-23T13:32:02.172Z,14.78
2022-08-23T13:41:47.922Z,14.80
2022-08-23T13:46:41.117Z,14.80
2022-08-23T14:01:39.237Z,13.94
2022-08-23T14:06:46.857Z,14.79
2022-08-23T14:12:04.365Z,14.78
2022-08-23T14:16:34.726Z,14.78
2022-08-23T18:11:36.372Z,12.93
2022-08-23T18:21:37.761Z,12.93
2022-08-23T18:26:37.096Z,12.93
2022-08-23T18:31:46.256Z,12.91
2022-08-23T18:36:38.965Z,12.93
2022-08-23T18:41:51.632Z,12.93
2022-08-23T18:46:42.443Z,12.93
2022-08-23T18:51:45.002Z,12.92
2022-08-23T18:58:13.824Z,12.92
2022-08-23T19:16:30.886Z,12.90
2022-08-23T19:21:33.585Z,12.91
2022-08-23T19:26:28.583Z,12.91
2022-08-23T19:36:46.789Z,12.89
2022-08-23T19:41:29.122Z,12.89
2022-08-23T19:51:45.618Z,12.91
2022-08-23T20:06:34.413Z,12.90
2022-08-23T20:11:34.219Z,12.89
2022-08-23T20:16:34.926Z,12.90
2022-08-23T20:26:36.612Z,12.89
2022-08-23T20:31:36.875Z,12.89
2022-08-23T20:36:37.361Z,12.89
2022-08-23T20:41:38.081Z,12.88
2022-08-23T20:46:38.793Z,12.88
2022-08-23T20:56:42.788Z,12.88
2022-08-23T21:01:43.431Z,12.88
2022-08-23T21:06:45.223Z,12.88
2022-08-23T21:11:29.481Z,12.86
2022-08-23T21:16:29.141Z,12.87
2022-08-23T21:21:29.903Z,12.89
2022-08-23T21:26:30.459Z,12.88
2022-08-23T21:31:34.235Z,12.89
2022-08-23T21:36:34.586Z,12.87
2022-08-23T21:41:35.152Z,12.86
2022-08-23T21:46:36.134Z,12.86
2022-08-23T21:51:36.640Z,12.84
2022-08-23T21:56:37.405Z,12.85
2022-08-23T22:01:38.041Z,12.85
2022-08-23T22:06:39.080Z,12.84
2022-08-23T22:11:39.353Z,12.85
2022-08-23T22:16:40.350Z,12.84
2022-08-23T22:21:40.776Z,12.84
2022-08-23T22:26:41.484Z,12.83
2022-08-23T22:31:42.136Z,12.83
2022-08-23T22:36:42.803Z,12.84
2022-08-23T22:47:16.872Z,12.82
2022-08-23T22:51:49.152Z,12.83
2022-08-23T22:56:48.302Z,12.83
2022-08-23T23:11:51.193Z,12.84
2022-08-23T23:16:51.247Z,12.83
2022-08-23T23:21:54.478Z,12.83
2022-08-23T23:26:53.036Z,12.82
2022-08-23T23:31:40.598Z,12.80
2022-08-23T23:36:40.242Z,12.81
2022-08-23T23:41:55.590Z,12.82
2022-08-23T23:46:44.357Z,12.79
2022-08-23T23:51:42.679Z,12.82
